Time;durP1;ratioP1;P1;durP2;ratioP2;P2;SDS_P1;SDS_P2;PMS_P1;PMS_P2;Temp;Humidity;BMP_temperature;BMP_pressure;BME280_temperature;BME280_humidity;BME280_pressure;Samples;Min_cycle;Max_cycle;Signal;HPM_P1;HPM_P2
2024/02/11 00:00:10;;;;;;;42.72;21.33;;;11.10;99.90;;;;;;5039032;28;20639;-71
2024/02/11 00:02:37;;;;;;;39.00;19.48;;;11.10;99.90;;;;;;5035406;28;20112;-74
2024/02/11 00:05:08;;;;;;;45.10;20.27;;;11.10;99.90;;;;;;5033142;28;20087;-75
2024/02/11 00:07:39;;;;;;;41.13;20.65;;;11.20;99.90;;;;;;5034452;28;20115;-74
2024/02/11 00:10:08;;;;;;;41.83;21.17;;;11.20;99.90;;;;;;5034186;28;20030;-71
2024/02/11 00:12:41;;;;;;;41.20;20.90;;;11.20;99.90;;;;;;5014505;28;20121;-71
2024/02/11 00:15:08;;;;;;;41.90;19.67;;;11.20;99.90;;;;;;5025337;28;20057;-73
2024/02/11 00:17:37;;;;;;;44.87;20.63;;;11.20;99.90;;;;;;5029516;28;20025;-71
2024/02/11 00:20:10;;;;;;;41.13;21.73;;;11.20;99.90;;;;;;5027263;28;20030;-71
2024/02/11 00:22:37;;;;;;;43.53;20.25;;;11.20;99.90;;;;;;5033117;28;20568;-76
2024/02/11 00:25:06;;;;;;;44.65;20.60;;;11.20;99.90;;;;;;5024473;28;20084;-80
2024/02/11 00:27:32;;;;;;;49.30;21.88;;;11.20;99.90;;;;;;5031692;28;20029;-73
2024/02/11 00:29:58;;;;;;;40.55;21.25;;;11.20;99.90;;;;;;5035760;28;20112;-71
2024/02/11 00:32:24;;;;;;;48.53;22.00;;;11.20;99.90;;;;;;5034427;28;20029;-71
2024/02/11 00:34:50;;;;;;;48.20;22.77;;;11.10;99.90;;;;;;5030875;28;20025;-73
2024/02/11 00:37:15;;;;;;;47.95;21.05;;;11.20;99.90;;;;;;5035380;28;20033;-77
2024/02/11 00:39:41;;;;;;;43.53;22.05;;;11.10;99.90;;;;;;5011723;28;20601;-73
2024/02/11 00:42:06;;;;;;;43.70;21.08;;;11.10;99.90;;;;;;5033053;28;20025;-71
2024/02/11 00:44:32;;;;;;;41.83;22.02;;;11.10;99.90;;;;;;5041706;28;20028;-71
2024/02/11 00:47:01;;;;;;;39.03;20.70;;;11.10;99.90;;;;;;5031293;28;20416;-72
2024/02/11 00:49:27;;;;;;;45.55;22.92;;;11.10;99.90;;;;;;5010573;28;20037;-71
2024/02/11 00:51:56;;;;;;;42.33;21.92;;;11.10;99.90;;;;;;5029315;28;20060;-72
2024/02/11 00:54:21;;;;;;;44.13;22.23;;;11.20;99.90;;;;;;5040473;28;20025;-75
2024/02/11 00:56:54;;;;;;;42.97;20.98;;;11.20;99.90;;;;;;5025718;28;20517;-75
2024/02/11 00:59:20;;;;;;;44.25;21.55;;;11.20;99.90;;;;;;5023839;28;20490;-72
2024/02/11 01:01:46;;;;;;;46.38;20.95;;;11.20;99.90;;;;;;5016465;28;20029;-72
2024/02/11 01:04:11;;;;;;;46.95;22.27;;;11.20;99.90;;;;;;5029618;28;23292;-70
2024/02/11 01:06:37;;;;;;;43.03;21.52;;;11.20;99.90;;;;;;5032156;28;20068;-72
2024/02/11 01:09:03;;;;;;;43.00;20.38;;;11.20;99.90;;;;;;5031882;28;20017;-71
2024/02/11 01:11:29;;;;;;;47.00;21.55;;;11.20;99.90;;;;;;5009265;28;20032;-75
2024/02/11 01:13:55;;;;;;;41.35;21.48;;;11.20;99.90;;;;;;5036177;28;20029;-71
2024/02/11 01:16:21;;;;;;;46.13;22.10;;;11.20;99.90;;;;;;5030351;28;20049;-73
2024/02/11 01:18:46;;;;;;;48.70;23.33;;;11.20;99.90;;;;;;5034123;28;20033;-74
2024/02/11 01:21:13;;;;;;;46.55;22.88;;;11.20;99.90;;;;;;5039947;28;20116;-72
2024/02/11 01:23:38;;;;;;;46.75;21.65;;;11.20;99.90;;;;;;5031259;28;20113;-72
2024/02/11 01:26:04;;;;;;;45.90;20.95;;;11.20;99.90;;;;;;5036145;28;20100;-71
2024/02/11 01:28:30;;;;;;;43.15;21.65;;;11.20;99.90;;;;;;5033713;28;20754;-73
2024/02/11 01:30:57;;;;;;;40.97;20.08;;;11.20;99.90;;;;;;5019870;28;20040;-72
2024/02/11 01:33:23;;;;;;;44.38;22.13;;;11.20;99.90;;;;;;5038322;28;20120;-70
2024/02/11 01:35:49;;;;;;;41.22;20.58;;;11.20;99.90;;;;;;5033917;28;20028;-72
2024/02/11 01:38:14;;;;;;;39.92;21.15;;;11.20;99.90;;;;;;5019810;28;20064;-72
2024/02/11 01:40:40;;;;;;;45.03;21.80;;;11.20;99.90;;;;;;5036220;28;20454;-70
2024/02/11 01:43:09;;;;;;;43.65;22.00;;;11.20;99.90;;;;;;5041910;28;20025;-71
2024/02/11 01:45:36;;;;;;;43.75;21.83;;;11.10;99.90;;;;;;5038243;28;20017;-71
2024/02/11 01:48:06;;;;;;;42.88;21.17;;;11.10;99.90;;;;;;5036815;28;20502;-75
2024/02/11 01:50:41;;;;;;;40.42;20.88;;;11.10;99.90;;;;;;5051366;28;20065;-70
2024/02/11 01:53:09;;;;;;;48.60;23.38;;;11.10;99.90;;;;;;5042557;28;20084;-72
2024/02/11 01:55:38;;;;;;;40.95;20.95;;;11.10;99.90;;;;;;5034084;28;20017;-74
2024/02/11 01:58:05;;;;;;;41.60;20.88;;;11.10;99.90;;;;;;5031212;28;20033;-72
2024/02/11 02:00:31;;;;;;;47.53;21.40;;;11.10;99.90;;;;;;5037775;28;20018;-71
2024/02/11 02:02:58;;;;;;;47.03;21.30;;;11.10;99.90;;;;;;5046596;28;20095;-70
2024/02/11 02:05:24;;;;;;;47.90;22.33;;;11.10;99.90;;;;;;5035769;28;20022;-71
2024/02/11 02:07:54;;;;;;;44.17;21.40;;;11.10;99.90;;;;;;5027869;28;20712;-70
2024/02/11 02:10:19;;;;;;;43.28;21.65;;;11.10;99.90;;;;;;5021863;28;20021;-74
2024/02/11 02:12:46;;;;;;;46.30;23.13;;;11.10;99.90;;;;;;5033786;28;20025;-70
2024/02/11 02:15:12;;;;;;;51.92;22.75;;;11.10;99.90;;;;;;5034935;28;20032;-70
2024/02/11 02:17:38;;;;;;;51.97;23.80;;;11.10;99.90;;;;;;5023036;28;20025;-72
2024/02/11 02:20:04;;;;;;;49.88;22.85;;;11.10;99.90;;;;;;5036792;28;20021;-70
2024/02/11 02:22:32;;;;;;;56.45;24.15;;;11.10;99.90;;;;;;5034852;28;20025;-71
2024/02/11 02:24:57;;;;;;;53.13;23.50;;;11.10;99.90;;;;;;5034075;28;20025;-70
2024/02/11 02:27:23;;;;;;;52.97;22.83;;;11.10;99.90;;;;;;5043212;28;20036;-72
2024/02/11 02:29:48;;;;;;;58.70;23.15;;;11.00;99.90;;;;;;5039405;28;20025;-72
2024/02/11 02:32:14;;;;;;;56.70;23.73;;;11.00;99.90;;;;;;5030508;28;20080;-70
2024/02/11 02:34:40;;;;;;;50.67;22.13;;;11.10;99.90;;;;;;5033584;28;20033;-71
2024/02/11 02:37:06;;;;;;;53.97;23.10;;;11.00;99.90;;;;;;5019782;28;20026;-71
2024/02/11 02:39:32;;;;;;;55.38;23.08;;;11.00;99.90;;;;;;5030448;28;20116;-73
2024/02/11 02:41:58;;;;;;;50.53;23.73;;;11.00;99.90;;;;;;5032763;28;20121;-73
2024/02/11 02:44:24;;;;;;;52.17;22.23;;;11.10;99.90;;;;;;5034802;28;20022;-70
2024/02/11 02:46:52;;;;;;;51.15;23.42;;;11.00;99.90;;;;;;5048172;28;20609;-70
2024/02/11 02:49:18;;;;;;;54.05;22.60;;;11.10;99.90;;;;;;5033410;28;20666;-78
2024/02/11 02:51:43;;;;;;;52.30;23.50;;;11.00;99.90;;;;;;5034533;28;20040;-71
2024/02/11 02:54:12;;;;;;;58.25;25.35;;;11.00;99.90;;;;;;5032906;28;20038;-71
2024/02/11 02:56:38;;;;;;;56.60;25.17;;;11.00;99.90;;;;;;5044473;28;20574;-70
2024/02/11 02:59:08;;;;;;;55.70;23.35;;;11.00;99.90;;;;;;5026432;28;20036;-71
2024/02/11 03:01:38;;;;;;;64.55;25.60;;;11.00;99.90;;;;;;5028390;28;20033;-70
2024/02/11 03:04:04;;;;;;;54.75;23.85;;;11.10;99.90;;;;;;5025556;28;20033;-73
2024/02/11 03:06:30;;;;;;;55.03;23.38;;;11.00;99.90;;;;;;5032784;28;20021;-70
2024/02/11 03:08:56;;;;;;;55.50;26.13;;;11.00;99.90;;;;;;5031929;28;20032;-72
2024/02/11 03:11:22;;;;;;;55.10;24.02;;;10.90;99.90;;;;;;5045807;28;20029;-76
2024/02/11 03:13:47;;;;;;;60.33;24.70;;;10.90;99.90;;;;;;5036188;28;20654;-73
2024/02/11 03:16:16;;;;;;;58.63;22.40;;;10.90;99.90;;;;;;5031354;28;20676;-71
2024/02/11 03:18:42;;;;;;;57.90;24.60;;;11.00;99.90;;;;;;5011724;28;20518;-76
2024/02/11 03:21:09;;;;;;;57.08;24.15;;;10.90;99.90;;;;;;5028043;28;20025;-72
2024/02/11 03:23:37;;;;;;;69.10;25.33;;;10.90;99.90;;;;;;5022151;28;20021;-71
2024/02/11 03:26:03;;;;;;;54.63;22.50;;;10.90;99.90;;;;;;5031086;28;20095;-70
2024/02/11 03:28:29;;;;;;;62.28;24.77;;;10.90;99.90;;;;;;5036773;28;20103;-70
2024/02/11 03:30:54;;;;;;;58.95;23.40;;;10.80;99.90;;;;;;5037652;28;20735;-73
2024/02/11 03:33:20;;;;;;;63.97;23.30;;;10.80;99.90;;;;;;5032768;28;20029;-71
2024/02/11 03:35:45;;;;;;;58.03;22.83;;;10.80;99.90;;;;;;5021666;28;20031;-73
2024/02/11 03:38:11;;;;;;;61.03;24.30;;;10.90;99.90;;;;;;5035526;28;20045;-73
2024/02/11 03:40:37;;;;;;;59.30;23.55;;;10.80;99.90;;;;;;5036798;28;20028;-75
2024/02/11 03:43:02;;;;;;;50.03;23.10;;;10.80;99.90;;;;;;5033312;28;20492;-71
2024/02/11 03:45:28;;;;;;;64.55;24.60;;;10.80;99.90;;;;;;5027496;28;20029;-72
2024/02/11 03:47:54;;;;;;;58.65;23.60;;;10.80;99.90;;;;;;5032076;28;20482;-70
2024/02/11 03:50:19;;;;;;;54.47;23.13;;;10.80;99.90;;;;;;5016339;28;20136;-72
2024/02/11 03:52:45;;;;;;;57.40;24.73;;;10.80;99.90;;;;;;5028092;28;20113;-73
2024/02/11 03:55:11;;;;;;;52.42;23.15;;;10.80;99.90;;;;;;5026829;28;20087;-70
2024/02/11 03:57:40;;;;;;;57.38;24.42;;;10.80;99.90;;;;;;5034826;28;20433;-70
2024/02/11 04:00:25;;;;;;;62.05;25.30;;;10.80;99.90;;;;;;5030259;28;20124;-73
2024/02/11 04:02:54;;;;;;;64.20;25.33;;;10.70;99.90;;;;;;5017667;28;20922;-71
2024/02/11 04:05:22;;;;;;;58.17;24.73;;;10.80;99.90;;;;;;5030501;28;20029;-73
2024/02/11 04:07:50;;;;;;;;;;;10.80;99.90;;;;;;5043805;28;20025;-71
2024/02/11 04:10:19;;;;;;;59.65;24.48;;;10.70;99.90;;;;;;5030901;28;20003;-72
2024/02/11 04:12:52;;;;;;;59.47;25.20;;;10.80;99.90;;;;;;5036623;28;20030;-70
2024/02/11 04:15:22;;;;;;;65.18;25.20;;;10.70;99.90;;;;;;5032633;28;20049;-74
2024/02/11 04:17:53;;;;;;;65.25;26.05;;;10.80;99.90;;;;;;5026960;28;20035;-72
2024/02/11 04:20:29;;;;;;;64.97;26.13;;;10.70;99.90;;;;;;5036693;28;20474;-70
2024/02/11 04:22:58;;;;;;;65.55;25.25;;;10.80;99.90;;;;;;5031218;28;20061;-72
2024/02/11 04:25:33;;;;;;;67.53;26.27;;;10.80;99.90;;;;;;5031155;28;20481;-72
2024/02/11 04:28:03;;;;;;;63.58;26.13;;;10.80;99.90;;;;;;5029871;28;20136;-73
2024/02/11 04:30:29;;;;;;;62.83;26.30;;;10.70;99.90;;;;;;5033452;28;20061;-76
2024/02/11 04:32:55;;;;;;;66.43;27.50;;;10.80;99.90;;;;;;5028622;28;20025;-70
2024/02/11 04:35:24;;;;;;;62.05;27.23;;;10.70;99.90;;;;;;5035242;28;20504;-70
2024/02/11 04:37:52;;;;;;;62.85;27.50;;;10.70;99.90;;;;;;5047580;28;20742;-70
2024/02/11 04:40:19;;;;;;;64.03;26.40;;;10.80;99.90;;;;;;5038382;28;20033;-75
2024/02/11 04:42:58;;;;;;;61.78;25.90;;;10.70;99.90;;;;;;5021181;28;20017;-70
2024/02/11 04:45:25;;;;;;;59.58;27.13;;;10.80;99.90;;;;;;5037753;28;20034;-78
2024/02/11 04:48:02;;;;;;;66.88;25.95;;;10.70;99.90;;;;;;5012693;28;20042;-74
2024/02/11 04:50:29;;;;;;;53.75;24.33;;;10.70;99.90;;;;;;5032176;28;20029;-70
2024/02/11 04:52:56;;;;;;;61.25;24.83;;;10.80;99.90;;;;;;5030454;28;20032;-71
2024/02/11 04:55:29;;;;;;;66.15;26.98;;;10.80;99.90;;;;;;5033015;28;20033;-74
2024/02/11 04:57:58;;;;;;;60.70;25.70;;;10.70;99.90;;;;;;5025452;28;20044;-74
2024/02/11 05:00:33;;;;;;;58.95;25.48;;;10.70;99.90;;;;;;5031025;28;20072;-70
2024/02/11 05:03:03;;;;;;;61.28;26.75;;;10.70;99.90;;;;;;5036376;28;20037;-71
2024/02/11 05:05:31;;;;;;;57.45;26.88;;;10.70;99.90;;;;;;5035459;28;20142;-76
2024/02/11 05:08:03;;;;;;;56.95;25.27;;;10.70;99.90;;;;;;5030195;28;20052;-70
2024/02/11 05:10:34;;;;;;;55.47;25.80;;;10.70;99.90;;;;;;5018064;28;20029;-70
2024/02/11 05:13:04;;;;;;;59.78;25.65;;;10.70;99.90;;;;;;5045006;28;20436;-71
2024/02/11 05:15:30;;;;;;;62.05;26.20;;;10.80;99.90;;;;;;5036323;28;20555;-70
2024/02/11 05:17:56;;;;;;;64.68;26.90;;;10.80;99.90;;;;;;5037247;28;20026;-70
2024/02/11 05:20:27;;;;;;;54.47;25.27;;;10.80;99.90;;;;;;5030919;28;20490;-74
2024/02/11 05:22:56;;;;;;;59.42;25.80;;;10.80;99.90;;;;;;5027819;28;20101;-70
2024/02/11 05:25:23;;;;;;;57.70;26.95;;;10.80;99.90;;;;;;5016358;28;20124;-71
2024/02/11 05:27:59;;;;;;;61.80;28.92;;;10.80;99.90;;;;;;5039269;28;20021;-70
2024/02/11 05:30:29;;;;;;;56.50;26.30;;;10.80;99.90;;;;;;5032050;28;20037;-70
2024/02/11 05:32:57;;;;;;;62.55;26.73;;;10.70;99.90;;;;;;5031400;28;20717;-71
2024/02/11 05:35:23;;;;;;;59.33;27.00;;;10.80;99.90;;;;;;5032439;28;20037;-70
2024/02/11 05:37:57;;;;;;;66.20;27.90;;;10.80;99.90;;;;;;5026034;28;20120;-70
2024/02/11 05:40:25;;;;;;;63.90;26.38;;;10.80;99.90;;;;;;5044881;28;20032;-70
2024/02/11 05:42:50;;;;;;;57.53;25.90;;;10.80;99.90;;;;;;5035504;28;20039;-75
2024/02/11 05:45:16;;;;;;;64.97;27.13;;;10.80;99.90;;;;;;5028940;28;20047;-71
2024/02/11 05:47:42;;;;;;;62.17;26.25;;;10.80;99.90;;;;;;5028786;28;20044;-71
2024/02/11 05:50:08;;;;;;;63.13;26.90;;;10.80;99.90;;;;;;5021907;28;20033;-70
2024/02/11 05:52:34;;;;;;;63.38;26.38;;;10.80;99.90;;;;;;5032817;28;20025;-71
2024/02/11 05:55:00;;;;;;;58.85;28.02;;;10.80;99.90;;;;;;5033007;28;20060;-71
2024/02/11 05:57:28;;;;;;;60.60;27.90;;;10.80;99.90;;;;;;5031152;28;20108;-71
2024/02/11 05:59:55;;;;;;;59.92;27.52;;;10.80;99.90;;;;;;5031779;28;20467;-70
2024/02/11 06:02:21;;;;;;;62.72;27.70;;;10.70;99.90;;;;;;5014010;28;20029;-71
2024/02/11 06:04:49;;;;;;;62.15;26.83;;;10.70;99.90;;;;;;5029049;28;20020;-72
2024/02/11 06:07:15;;;;;;;65.00;28.15;;;10.70;99.90;;;;;;5027382;28;20022;-72
2024/02/11 06:09:40;;;;;;;60.22;27.02;;;10.70;99.90;;;;;;5029405;28;20120;-70
2024/02/11 06:12:07;;;;;;;64.47;26.80;;;10.70;99.90;;;;;;5046381;28;20049;-70
2024/02/11 06:14:33;;;;;;;67.78;27.80;;;10.80;99.90;;;;;;5040517;28;20021;-71
2024/02/11 06:16:59;;;;;;;55.00;25.73;;;10.80;99.90;;;;;;5036079;28;20044;-72
2024/02/11 06:19:25;;;;;;;65.05;27.63;;;10.80;99.90;;;;;;5034097;28;20032;-73
2024/02/11 06:21:51;;;;;;;61.88;28.50;;;10.80;99.90;;;;;;5023599;28;20029;-71
2024/02/11 06:24:16;;;;;;;65.85;28.17;;;10.80;99.90;;;;;;5038933;28;20017;-75
2024/02/11 06:26:43;;;;;;;58.65;27.63;;;10.80;99.90;;;;;;5030829;28;20109;-74
2024/02/11 06:29:08;;;;;;;60.30;26.85;;;10.80;99.90;;;;;;5030254;28;20029;-71
2024/02/11 06:31:34;;;;;;;57.28;26.45;;;10.80;99.90;;;;;;5027114;28;20077;-72
2024/02/11 06:34:00;;;;;;;56.75;26.88;;;10.80;99.90;;;;;;5023923;28;20025;-72
2024/02/11 06:36:26;;;;;;;65.43;27.42;;;10.80;99.90;;;;;;5034323;28;20025;-72
2024/02/11 06:38:52;;;;;;;56.30;26.50;;;10.80;99.90;;;;;;5033698;28;20037;-73
2024/02/11 06:41:18;;;;;;;58.63;26.77;;;10.80;99.90;;;;;;5045550;28;20025;-72
2024/02/11 06:43:43;;;;;;;58.30;25.67;;;10.80;99.90;;;;;;5026686;28;20033;-71
2024/02/11 06:46:10;;;;;;;53.67;26.23;;;10.80;99.90;;;;;;5025146;28;20045;-73
2024/02/11 06:48:35;;;;;;;58.78;26.08;;;10.80;99.90;;;;;;5027048;28;20741;-73
2024/02/11 06:51:01;;;;;;;57.25;27.17;;;10.80;99.90;;;;;;5029712;28;20044;-77
2024/02/11 06:53:29;;;;;;;58.17;26.98;;;10.80;99.90;;;;;;5027483;28;20441;-71
2024/02/11 06:55:54;;;;;;;56.73;26.67;;;10.80;99.90;;;;;;5026164;28;20045;-70
2024/02/11 06:58:20;;;;;;;52.20;25.42;;;10.80;99.90;;;;;;5026435;28;20321;-72
2024/02/11 07:00:46;;;;;;;58.00;25.60;;;10.80;99.90;;;;;;5030246;28;20025;-74
2024/02/11 07:03:13;;;;;;;60.30;26.35;;;10.80;99.90;;;;;;5009213;28;20426;-74
2024/02/11 07:05:41;;;;;;;53.13;26.40;;;10.80;99.90;;;;;;5029198;28;20508;-73
2024/02/11 07:08:10;;;;;;;61.90;26.83;;;10.80;99.90;;;;;;5028055;28;20449;-71
2024/02/11 07:10:36;;;;;;;54.97;25.63;;;10.80;99.90;;;;;;5030299;28;20448;-74
2024/02/11 07:13:02;;;;;;;52.05;25.42;;;10.80;99.90;;;;;;5029600;28;20036;-73
2024/02/11 07:15:28;;;;;;;56.33;27.02;;;10.80;99.90;;;;;;5028704;28;20025;-73
2024/02/11 07:17:53;;;;;;;57.55;26.90;;;10.80;99.90;;;;;;5023708;28;20065;-74
2024/02/11 07:20:19;;;;;;;55.47;26.60;;;10.80;99.90;;;;;;5027611;28;20022;-72
2024/02/11 07:22:45;;;;;;;63.40;26.83;;;10.90;99.90;;;;;;5024996;28;20025;-74
2024/02/11 07:25:12;;;;;;;57.63;26.67;;;10.90;99.90;;;;;;5021314;28;20116;-73
2024/02/11 07:27:39;;;;;;;59.60;27.42;;;10.80;99.90;;;;;;5019456;28;20034;-74
2024/02/11 07:30:06;;;;;;;56.60;27.38;;;10.80;99.90;;;;;;5028474;28;20482;-72
2024/02/11 07:32:31;;;;;;;65.20;26.77;;;10.80;99.90;;;;;;5024055;28;20518;-74
2024/02/11 07:34:57;;;;;;;58.13;26.83;;;10.90;99.90;;;;;;5039320;28;20037;-71
2024/02/11 07:37:23;;;;;;;55.92;26.17;;;10.80;99.90;;;;;;5011755;28;20087;-71
2024/02/11 07:39:50;;;;;;;51.92;27.15;;;10.80;99.90;;;;;;5009202;28;20293;-72
2024/02/11 07:42:16;;;;;;;56.65;27.65;;;10.80;99.90;;;;;;5017625;28;20021;-77
2024/02/11 07:44:42;;;;;;;61.95;27.60;;;10.80;99.90;;;;;;5023617;28;21290;-81
2024/02/11 07:47:09;;;;;;;67.82;28.40;;;10.80;99.90;;;;;;5029259;28;20116;-76
2024/02/11 07:49:36;;;;;;;58.40;27.08;;;10.80;99.90;;;;;;5010886;28;20065;-71
2024/02/11 07:52:02;;;;;;;59.42;28.10;;;10.80;99.90;;;;;;5044405;28;20030;-81
2024/02/11 07:54:27;;;;;;;66.72;27.63;;;10.80;99.90;;;;;;5029457;28;20033;-75
2024/02/11 07:56:53;;;;;;;63.70;27.92;;;10.90;99.90;;;;;;5020411;28;20037;-74
2024/02/11 07:59:19;;;;;;;67.63;29.38;;;10.80;99.90;;;;;;5021496;28;20067;-73
2024/02/11 08:01:45;;;;;;;59.22;28.60;;;10.90;99.90;;;;;;5024986;28;20028;-73
2024/02/11 08:04:12;;;;;;;54.33;25.98;;;10.80;99.90;;;;;;5041492;28;20041;-74
2024/02/11 08:06:39;;;;;;;60.53;28.55;;;10.80;99.90;;;;;;5029408;28;20025;-73
2024/02/11 08:09:09;;;;;;;62.58;27.55;;;10.80;99.90;;;;;;5027891;28;20030;-75
2024/02/11 08:11:34;;;;;;;66.10;28.83;;;10.90;99.90;;;;;;5031305;28;20391;-72
2024/02/11 08:14:00;;;;;;;56.83;27.52;;;10.80;99.90;;;;;;5031901;28;20063;-74
2024/02/11 08:16:26;;;;;;;62.50;28.02;;;10.80;99.90;;;;;;5012971;28;20021;-73
2024/02/11 08:18:54;;;;;;;60.80;27.75;;;10.80;99.90;;;;;;5022541;28;20648;-73
2024/02/11 08:21:20;;;;;;;60.60;28.30;;;10.80;99.90;;;;;;5025934;28;20029;-73
2024/02/11 08:23:46;;;;;;;60.90;29.65;;;10.80;99.90;;;;;;5023117;28;20104;-73
2024/02/11 08:26:11;;;;;;;58.67;28.17;;;10.80;99.90;;;;;;5019344;28;20022;-74
2024/02/11 08:28:37;;;;;;;61.95;28.48;;;10.90;99.90;;;;;;5009008;28;20034;-76
2024/02/11 08:31:04;;;;;;;59.42;27.08;;;10.80;99.90;;;;;;5019279;28;20034;-72
2024/02/11 08:33:29;;;;;;;56.08;27.40;;;10.90;99.90;;;;;;5025475;28;20037;-75
2024/02/11 08:35:56;;;;;;;59.33;27.58;;;10.80;99.90;;;;;;5010562;28;20492;-75
2024/02/11 08:38:22;;;;;;;60.10;27.38;;;10.90;99.90;;;;;;5033248;28;20034;-73
2024/02/11 08:40:48;;;;;;;67.28;28.15;;;10.80;99.90;;;;;;5027188;28;20033;-72
2024/02/11 08:43:14;;;;;;;57.08;25.75;;;10.90;99.90;;;;;;5021922;28;20030;-71
2024/02/11 08:45:40;;;;;;;66.32;28.92;;;10.90;99.90;;;;;;5031903;28;20027;-72
2024/02/11 08:48:06;;;;;;;59.63;26.10;;;10.90;99.90;;;;;;5021909;28;20108;-72
2024/02/11 08:50:31;;;;;;;60.55;27.10;;;10.90;99.90;;;;;;5022989;28;20079;-72
2024/02/11 08:52:57;;;;;;;70.85;27.63;;;10.90;99.90;;;;;;5024198;28;20041;-71
2024/02/11 08:55:23;;;;;;;64.20;26.42;;;10.90;99.90;;;;;;5029235;28;20025;-73
2024/02/11 08:57:48;;;;;;;58.72;26.77;;;10.90;99.90;;;;;;5028360;28;20041;-74
2024/02/11 09:00:18;;;;;;;65.57;29.02;;;11.00;99.90;;;;;;5027386;28;20109;-72
2024/02/11 09:02:45;;;;;;;68.30;28.10;;;11.00;99.90;;;;;;5023371;28;20035;-72
2024/02/11 09:05:11;;;;;;;65.45;28.67;;;11.00;99.90;;;;;;5024075;28;20346;-74
2024/02/11 09:07:42;;;;;;;68.85;28.67;;;11.00;99.90;;;;;;5027761;28;20025;-79
2024/02/11 09:10:08;;;;;;;73.18;28.17;;;11.10;99.90;;;;;;5008260;28;20061;-72
2024/02/11 09:12:34;;;;;;;67.43;27.67;;;11.10;99.90;;;;;;5024100;28;20067;-73
2024/02/11 09:15:00;;;;;;;83.07;29.40;;;11.10;99.90;;;;;;5029366;28;20056;-74
2024/02/11 09:17:27;;;;;;;63.95;27.50;;;11.10;99.90;;;;;;5021917;28;20033;-71
2024/02/11 09:19:53;;;;;;;67.25;28.90;;;11.10;99.90;;;;;;5006125;28;20038;-71
2024/02/11 09:22:18;;;;;;;72.03;28.38;;;11.10;99.90;;;;;;5008444;28;20438;-75
2024/02/11 09:24:45;;;;;;;67.95;27.63;;;11.10;99.90;;;;;;5028269;28;20029;-70
2024/02/11 09:27:10;;;;;;;70.05;27.95;;;11.20;99.90;;;;;;5003945;28;20099;-71
2024/02/11 09:29:36;;;;;;;67.93;27.15;;;11.20;99.90;;;;;;5015146;28;20070;-71
2024/02/11 09:32:03;;;;;;;64.28;27.08;;;11.20;99.90;;;;;;5014818;28;20035;-74
2024/02/11 09:34:29;;;;;;;63.03;26.88;;;11.20;99.90;;;;;;5026821;28;20033;-70
2024/02/11 09:36:55;;;;;;;64.40;26.30;;;11.20;99.90;;;;;;5009527;28;20502;-74
2024/02/11 09:39:20;;;;;;;63.67;26.83;;;11.20;99.90;;;;;;5008590;28;20037;-73
2024/02/11 09:41:46;;;;;;;66.40;28.27;;;11.30;99.90;;;;;;5039714;28;20036;-74
2024/02/11 09:44:14;;;;;;;65.78;27.65;;;11.20;99.90;;;;;;5029325;28;20048;-82
2024/02/11 09:46:41;;;;;;;63.35;28.40;;;11.20;99.90;;;;;;5021390;28;20037;-71
2024/02/11 09:49:18;;;;;;;60.90;26.08;;;11.20;99.90;;;;;;5018678;28;20510;-73
2024/02/11 09:51:48;;;;;;;57.40;27.40;;;11.20;99.90;;;;;;5009152;28;20033;-72
2024/02/11 09:54:16;;;;;;;62.63;27.80;;;11.30;99.90;;;;;;5027498;28;20648;-72
2024/02/11 09:56:42;;;;;;;59.80;26.40;;;11.20;99.90;;;;;;5034164;28;20024;-71
2024/02/11 09:59:12;;;;;;;58.13;25.65;;;11.20;99.90;;;;;;5036830;28;20047;-70
2024/02/11 10:01:38;;;;;;;52.45;24.60;;;11.20;99.90;;;;;;5016971;28;20028;-72
2024/02/11 10:04:06;;;;;;;59.08;25.98;;;11.20;99.90;;;;;;5020340;28;20561;-70
2024/02/11 10:06:37;;;;;;;53.92;25.45;;;11.20;99.90;;;;;;5027312;28;20042;-70
2024/02/11 10:09:10;;;;;;;52.13;24.30;;;11.20;99.90;;;;;;5016478;28;20033;-75
2024/02/11 10:11:37;;;;;;;54.95;24.33;;;11.20;99.90;;;;;;5014009;28;20061;-72
2024/02/11 10:14:08;;;;;;;55.03;25.23;;;11.20;99.90;;;;;;5027482;28;20083;-74
2024/02/11 10:16:35;;;;;;;61.00;26.13;;;11.10;99.90;;;;;;5036261;28;20033;-73
2024/02/11 10:19:00;;;;;;;54.22;25.70;;;11.10;99.90;;;;;;5026448;28;20029;-70
2024/02/11 10:21:26;;;;;;;58.40;25.73;;;11.10;99.90;;;;;;5043378;28;20029;-76
2024/02/11 10:23:54;;;;;;;55.13;25.13;;;11.10;99.90;;;;;;5038769;28;20398;-72
2024/02/11 10:26:19;;;;;;;58.65;25.92;;;11.10;99.90;;;;;;5014736;28;20053;-71
2024/02/11 10:28:46;;;;;;;56.00;25.65;;;11.10;99.90;;;;;;5034126;28;20634;-75
2024/02/11 10:31:12;;;;;;;58.60;26.88;;;11.10;99.90;;;;;;5029850;28;20040;-73
2024/02/11 10:33:39;;;;;;;64.03;26.35;;;11.10;99.90;;;;;;5033813;28;20501;-70
2024/02/11 10:36:06;;;;;;;59.05;26.25;;;11.10;99.90;;;;;;5029183;28;20029;-72
2024/02/11 10:38:34;;;;;;;58.30;27.10;;;11.10;99.90;;;;;;5042705;28;20405;-74
2024/02/11 10:41:01;;;;;;;60.83;27.42;;;11.10;99.90;;;;;;5031785;28;20040;-71
2024/02/11 10:43:36;;;;;;;67.63;27.77;;;11.10;99.90;;;;;;5029453;28;20478;-71
2024/02/11 10:46:02;;;;;;;60.17;27.38;;;11.10;99.90;;;;;;5030686;28;20037;-76
2024/02/11 10:48:28;;;;;;;66.25;30.23;;;11.10;99.90;;;;;;5016275;28;20058;-71
2024/02/11 10:51:17;;;;;;;61.60;28.33;;;11.10;99.90;;;;;;5027204;28;20444;-74
2024/02/11 10:53:46;;;;;;;66.22;28.95;;;11.10;99.90;;;;;;5030370;28;20030;-74
2024/02/11 10:56:14;;;;;;;68.80;29.38;;;11.10;99.90;;;;;;5028373;28;20394;-75
2024/02/11 10:58:44;;;;;;;60.20;28.48;;;11.10;99.90;;;;;;5029499;28;20033;-70
2024/02/11 11:01:12;;;;;;;63.25;27.35;;;11.10;99.90;;;;;;5031226;28;20053;-73
2024/02/11 11:03:40;;;;;;;59.22;27.95;;;11.10;99.90;;;;;;5026707;28;20029;-72
2024/02/11 11:06:10;;;;;;;63.85;27.77;;;11.10;99.90;;;;;;5026076;28;20029;-71
2024/02/11 11:08:38;;;;;;;59.10;25.15;;;11.10;99.90;;;;;;5024848;28;20025;-72
2024/02/11 11:11:04;;;;;;;67.53;26.73;;;11.10;99.90;;;;;;5010416;28;20125;-73
2024/02/11 11:13:31;;;;;;;63.83;27.88;;;11.10;99.90;;;;;;5019993;28;20148;-70
2024/02/11 11:15:57;;;;;;;61.65;27.70;;;11.10;99.90;;;;;;5022076;28;20037;-71
2024/02/11 11:18:23;;;;;;;60.35;26.17;;;11.10;99.90;;;;;;5022025;28;20027;-76
2024/02/11 11:20:53;;;;;;;65.95;26.65;;;11.10;99.90;;;;;;5024020;28;20060;-72
2024/02/11 11:23:20;;;;;;;71.55;27.42;;;11.10;99.90;;;;;;5022836;28;20105;-70
2024/02/11 11:25:52;;;;;;;67.63;27.15;;;11.20;99.90;;;;;;5022865;28;20030;-70
2024/02/11 11:28:18;;;;;;;67.00;27.20;;;11.20;99.90;;;;;;5024393;28;20075;-72
2024/02/11 11:30:44;;;;;;;62.65;25.35;;;11.20;99.90;;;;;;5027008;28;20033;-72
2024/02/11 11:33:12;;;;;;;64.05;27.00;;;11.20;99.90;;;;;;5025925;28;20025;-71
2024/02/11 11:35:39;;;;;;;61.45;27.02;;;11.20;99.90;;;;;;5027792;28;20805;-72
2024/02/11 11:38:05;;;;;;;67.65;27.42;;;11.20;99.90;;;;;;5040467;28;20625;-74
2024/02/11 11:40:35;;;;;;;68.45;28.10;;;11.20;99.90;;;;;;5022511;28;20053;-73
2024/02/11 11:43:12;;;;;;;67.20;27.35;;;11.20;99.90;;;;;;5026409;28;20073;-70
2024/02/11 11:45:55;;;;;;;71.05;28.08;;;11.20;99.90;;;;;;5024125;28;20373;-71
2024/02/11 11:48:22;;;;;;;64.47;27.67;;;11.20;99.90;;;;;;5024034;28;20025;-72
2024/02/11 11:50:54;;;;;;;60.75;27.02;;;11.20;99.90;;;;;;5023866;28;20029;-72
2024/02/11 11:53:21;;;;;;;68.82;28.35;;;11.20;99.90;;;;;;5021942;28;20109;-72
2024/02/11 11:55:53;;;;;;;68.05;27.90;;;11.20;99.90;;;;;;5030310;28;20120;-72
2024/02/11 11:58:26;;;;;;;63.70;26.75;;;11.20;99.90;;;;;;5023915;28;20038;-69
2024/02/11 12:13:41;;;;;;;62.30;27.45;;;11.30;99.90;;;;;;5056476;28;20044;-71
2024/02/11 12:16:13;;;;;;;66.93;27.13;;;11.30;99.90;;;;;;5065068;28;20032;-65
2024/02/11 12:18:40;;;;;;;62.20;27.13;;;11.30;99.90;;;;;;5044622;28;20033;-65
2024/02/11 12:21:07;;;;;;;76.65;28.30;;;11.40;99.90;;;;;;5065000;28;20032;-65
2024/02/11 12:23:34;;;;;;;64.43;28.17;;;11.40;99.90;;;;;;5057356;28;20031;-67
2024/02/11 12:26:00;;;;;;;64.28;27.83;;;11.30;99.90;;;;;;5057568;28;20090;-65
2024/02/11 12:28:31;;;;;;;74.88;29.70;;;11.30;99.90;;;;;;5057226;28;20031;-67
2024/02/11 12:31:11;;;;;;;74.43;29.65;;;11.40;99.90;;;;;;5065034;28;20025;-65
2024/02/11 12:33:38;;;;;;;66.70;28.38;;;11.40;99.90;;;;;;5056921;28;20028;-65
2024/02/11 12:36:08;;;;;;;69.65;29.35;;;11.40;99.90;;;;;;5062532;28;20085;-66
2024/02/11 12:38:36;;;;;;;86.22;31.30;;;11.40;99.90;;;;;;5060874;28;20170;-66
2024/02/11 12:41:02;;;;;;;;;;;11.40;99.90;;;;;;5062093;28;20047;-65